Time;durP1;ratioP1;P1;durP2;ratioP2;P2;SDS_P1;SDS_P2;PMS_P1;PMS_P2;Temp;Humidity;BMP_temperature;BMP_pressure;BME280_temperature;BME280_humidity;BME280_pressure;Samples;Min_cycle;Max_cycle;Signal;HPM_P1;HPM_P2
2023/12/13 00:00:37;;;;;;;2.97;1.70;;;20.00;75.70;;;;;;2086710;28;20381;-51
2023/12/13 00:01:38;;;;;;;3.22;1.80;;;20.10;75.80;;;;;;2088024;28;20021;-50
2023/12/13 00:02:38;;;;;;;2.75;1.70;;;20.00;75.70;;;;;;2087605;28;20100;-51
2023/12/13 00:03:39;;;;;;;3.33;1.95;;;19.90;75.60;;;;;;2087839;28;20120;-50
2023/12/13 00:04:40;;;;;;;1.98;1.60;;;20.00;75.70;;;;;;2088301;28;20175;-50
2023/12/13 00:05:40;;;;;;;3.10;1.80;;;20.00;75.70;;;;;;2086142;28;20029;-50
2023/12/13 00:06:41;;;;;;;2.95;2.00;;;20.00;75.70;;;;;;2088578;28;20021;-50
2023/12/13 00:07:41;;;;;;;2.88;2.00;;;20.00;75.60;;;;;;2087305;28;20108;-51
2023/12/13 00:08:42;;;;;;;3.78;2.17;;;20.00;75.70;;;;;;2087860;28;20021;-50
2023/12/13 00:09:43;;;;;;;3.03;2.13;;;20.00;75.60;;;;;;2087715;28;20067;-50
2023/12/13 00:10:43;;;;;;;3.15;1.90;;;20.00;75.70;;;;;;2087462;28;20412;-50
2023/12/13 00:11:44;;;;;;;2.97;1.83;;;20.00;75.70;;;;;;2085108;28;20044;-50
2023/12/13 00:12:44;;;;;;;2.75;1.63;;;20.10;75.70;;;;;;2086230;28;20028;-51
2023/12/13 00:13:45;;;;;;;3.97;2.20;;;20.00;75.60;;;;;;2087001;28;20254;-52
2023/12/13 00:14:45;;;;;;;3.72;1.98;;;20.00;75.60;;;;;;2086497;28;20024;-50
2023/12/13 00:15:46;;;;;;;2.60;1.60;;;20.00;76.20;;;;;;2087277;28;20317;-50
2023/12/13 00:16:46;;;;;;;4.53;2.03;;;20.00;75.60;;;;;;2087137;28;20021;-52
2023/12/13 00:17:47;;;;;;;2.60;1.92;;;20.10;75.60;;;;;;2086800;28;20036;-50
2023/12/13 00:18:48;;;;;;;4.07;2.20;;;20.10;75.60;;;;;;2085503;28;20024;-49
2023/12/13 00:19:48;;;;;;;4.45;2.05;;;19.90;75.50;;;;;;2086430;28;20147;-50
2023/12/13 00:20:49;;;;;;;3.28;1.80;;;19.90;75.60;;;;;;2087139;28;20017;-50
2023/12/13 00:21:49;;;;;;;2.45;1.90;;;19.80;75.50;;;;;;2087024;28;20083;-53
2023/12/13 00:22:50;;;;;;;2.40;1.48;;;20.00;75.60;;;;;;2088062;28;20029;-51
2023/12/13 00:23:50;;;;;;;3.28;2.15;;;20.00;75.60;;;;;;2087021;28;20056;-51
2023/12/13 00:24:51;;;;;;;3.13;1.80;;;20.00;75.60;;;;;;2087848;28;20014;-50
2023/12/13 00:25:51;;;;;;;2.65;1.67;;;19.90;75.50;;;;;;2086724;28;20017;-49
2023/12/13 00:26:52;;;;;;;3.13;2.05;;;20.00;75.50;;;;;;2085221;28;20110;-50
2023/12/13 00:27:53;;;;;;;2.45;1.88;;;20.00;75.50;;;;;;2086909;28;20303;-50
2023/12/13 00:28:54;;;;;;;3.20;1.80;;;20.00;75.50;;;;;;2087390;28;20021;-50
2023/12/13 00:29:55;;;;;;;2.10;1.85;;;20.00;75.50;;;;;;2086150;28;20321;-50
2023/12/13 00:30:55;;;;;;;3.58;2.15;;;20.00;75.50;;;;;;2087836;28;20021;-50
2023/12/13 00:31:56;;;;;;;2.50;1.70;;;20.00;75.50;;;;;;2086765;28;20069;-50
2023/12/13 00:32:56;;;;;;;3.50;2.10;;;20.00;75.50;;;;;;2087794;28;20071;-51
2023/12/13 00:33:57;;;;;;;2.45;1.80;;;20.00;75.50;;;;;;2087649;28;20127;-49
2023/12/13 00:34:58;;;;;;;2.80;1.90;;;19.90;75.40;;;;;;2086354;28;20033;-51
2023/12/13 00:35:58;;;;;;;1.90;1.58;;;19.80;75.30;;;;;;2087660;28;20120;-51
2023/12/13 00:36:59;;;;;;;2.75;1.70;;;19.90;75.70;;;;;;2087175;28;20029;-50
2023/12/13 00:37:59;;;;;;;2.08;1.42;;;19.90;75.40;;;;;;2085969;28;20117;-51
2023/12/13 00:39:00;;;;;;;1.98;1.52;;;19.90;75.40;;;;;;2087146;28;20021;-50
2023/12/13 00:40:00;;;;;;;2.40;1.80;;;19.80;75.40;;;;;;2086737;28;20380;-50
2023/12/13 00:41:01;;;;;;;2.53;1.60;;;19.90;75.40;;;;;;2087335;28;20025;-51
2023/12/13 00:42:02;;;;;;;2.30;1.70;;;20.00;75.50;;;;;;2087683;28;20023;-50
2023/12/13 00:43:02;;;;;;;2.45;1.58;;;19.90;75.40;;;;;;2085909;28;20495;-50
2023/12/13 00:44:03;;;;;;;2.75;1.65;;;19.90;75.40;;;;;;2087696;28;20052;-51
2023/12/13 00:45:04;;;;;;;2.50;1.42;;;19.90;75.40;;;;;;2087269;28;20506;-50
2023/12/13 00:46:05;;;;;;;2.13;1.52;;;19.90;75.40;;;;;;2087251;28;20384;-49
2023/12/13 00:47:06;;;;;;;2.28;1.50;;;19.90;75.40;;;;;;2087385;28;20017;-52
2023/12/13 00:48:07;;;;;;;2.60;1.45;;;19.90;75.40;;;;;;2084823;28;20033;-50
2023/12/13 00:49:08;;;;;;;1.63;1.30;;;19.90;75.40;;;;;;2087141;28;20105;-52
2023/12/13 00:50:09;;;;;;;2.47;1.73;;;19.80;75.40;;;;;;2087610;28;20021;-50
2023/12/13 00:51:20;;;;;;;2.05;1.60;;;19.90;75.40;;;;;;2086739;28;20131;-52
2023/12/13 00:52:21;;;;;;;1.70;1.27;;;19.90;75.30;;;;;;2087735;28;20018;-50
2023/12/13 00:53:21;;;;;;;3.55;1.52;;;19.90;75.40;;;;;;2084775;28;20055;-51
2023/12/13 00:54:22;;;;;;;2.95;1.55;;;19.90;75.40;;;;;;2085939;28;20023;-51
2023/12/13 00:55:22;;;;;;;1.50;1.38;;;19.90;75.40;;;;;;2087132;28;20028;-50
2023/12/13 00:56:23;;;;;;;1.90;1.50;;;19.90;75.30;;;;;;2087724;28;20021;-49
2023/12/13 00:57:24;;;;;;;1.95;1.17;;;19.90;75.30;;;;;;2087359;28;20017;-50
2023/12/13 00:58:24;;;;;;;2.13;1.48;;;19.80;75.30;;;;;;2084048;28;20032;-51
2023/12/13 00:59:25;;;;;;;1.92;1.30;;;19.80;75.30;;;;;;2087358;28;20104;-51
2023/12/13 01:00:25;;;;;;;2.40;1.55;;;19.90;75.40;;;;;;2087546;28;20021;-50
2023/12/13 01:01:26;;;;;;;2.53;1.30;;;19.80;75.20;;;;;;2083550;28;20041;-49
2023/12/13 01:02:27;;;;;;;1.70;1.25;;;19.90;75.30;;;;;;2086107;28;20491;-49
2023/12/13 01:03:28;;;;;;;2.67;1.50;;;19.80;75.30;;;;;;2087405;28;20021;-50
2023/12/13 01:04:30;;;;;;;2.33;1.42;;;19.90;75.30;;;;;;2087387;28;20025;-50
2023/12/13 01:05:30;;;;;;;2.72;1.70;;;19.90;75.30;;;;;;2083291;28;20096;-51
2023/12/13 01:06:31;;;;;;;2.28;1.45;;;19.80;75.30;;;;;;2084223;28;20025;-50
2023/12/13 01:07:31;;;;;;;1.95;1.40;;;19.90;75.30;;;;;;2087207;28;20194;-49
2023/12/13 01:08:32;;;;;;;2.33;1.30;;;19.90;75.30;;;;;;2087564;28;20050;-50
2023/12/13 01:09:32;;;;;;;2.42;1.30;;;19.90;75.20;;;;;;2085871;28;20025;-51
2023/12/13 01:10:33;;;;;;;2.08;1.33;;;19.80;75.20;;;;;;2086705;28;20104;-53
2023/12/13 01:11:33;;;;;;;2.17;1.33;;;19.80;75.20;;;;;;2086568;28;20070;-50
2023/12/13 01:12:35;;;;;;;2.40;1.40;;;19.80;75.20;;;;;;2086640;28;20044;-50
2023/12/13 01:13:36;;;;;;;2.92;1.30;;;19.80;75.20;;;;;;2087391;28;20391;-51
2023/12/13 01:14:36;;;;;;;4.20;1.25;;;19.90;75.20;;;;;;2086856;28;20029;-49
2023/12/13 01:15:37;;;;;;;2.03;1.45;;;19.80;75.20;;;;;;2086631;28;20257;-51
2023/12/13 01:16:37;;;;;;;2.35;1.45;;;19.80;75.20;;;;;;2087066;28;20021;-50
2023/12/13 01:17:38;;;;;;;1.95;1.30;;;19.80;75.20;;;;;;2086908;28;20044;-50
2023/12/13 01:18:39;;;;;;;1.40;1.30;;;19.80;75.20;;;;;;2087200;28;20017;-50
2023/12/13 01:19:39;;;;;;;3.42;1.73;;;19.90;75.20;;;;;;2087541;28;20048;-50
2023/12/13 01:20:40;;;;;;;1.85;1.50;;;19.90;75.20;;;;;;2086562;28;20438;-49
2023/12/13 01:21:41;;;;;;;3.03;1.33;;;19.80;75.20;;;;;;2087339;28;20025;-50
2023/12/13 01:22:41;;;;;;;2.53;1.38;;;19.80;75.20;;;;;;2085606;28;20048;-50
2023/12/13 01:23:42;;;;;;;1.80;1.35;;;19.80;75.20;;;;;;2086974;28;20755;-50
2023/12/13 01:24:43;;;;;;;2.08;1.15;;;19.80;75.20;;;;;;2086016;28;20025;-49
2023/12/13 01:25:43;;;;;;;1.63;1.20;;;19.90;75.20;;;;;;2086091;28;20401;-51
2023/12/13 01:26:44;;;;;;;1.88;1.20;;;19.70;75.10;;;;;;2086499;28;20050;-50
2023/12/13 01:27:45;;;;;;;1.92;1.25;;;19.80;75.10;;;;;;2087307;28;20509;-51
2023/12/13 01:28:45;;;;;;;1.42;1.33;;;19.90;75.20;;;;;;2087151;28;20033;-50
2023/12/13 01:29:46;;;;;;;2.00;1.48;;;19.80;75.10;;;;;;2087125;28;20025;-51
2023/12/13 01:30:46;;;;;;;1.77;1.30;;;19.80;75.10;;;;;;2087091;28;20387;-51
2023/12/13 01:31:47;;;;;;;3.95;1.50;;;19.80;75.10;;;;;;2087094;28;20573;-51
2023/12/13 01:32:47;;;;;;;1.73;1.20;;;19.70;75.00;;;;;;2087145;28;20529;-52
2023/12/13 01:33:48;;;;;;;1.95;1.30;;;19.80;75.10;;;;;;2078972;28;20095;-51
2023/12/13 01:34:48;;;;;;;2.60;1.20;;;19.80;75.10;;;;;;2086951;28;20442;-50
2023/12/13 01:35:49;;;;;;;2.30;1.33;;;19.80;75.10;;;;;;2086867;28;20435;-52
2023/12/13 01:36:49;;;;;;;2.38;1.30;;;19.90;75.20;;;;;;2087137;28;20384;-49
2023/12/13 01:37:50;;;;;;;1.98;1.30;;;19.80;75.10;;;;;;2086809;28;20013;-51
2023/12/13 01:38:50;;;;;;;1.85;1.23;;;19.80;75.10;;;;;;2086748;28;20392;-49
2023/12/13 01:39:56;;;;;;;2.33;1.20;;;19.70;75.00;;;;;;2087100;28;20056;-49
2023/12/13 01:40:56;;;;;;;2.55;1.30;;;19.80;75.30;;;;;;2084641;28;20020;-53
2023/12/13 01:41:57;;;;;;;2.88;1.40;;;19.80;75.00;;;;;;2086708;28;20048;-51
2023/12/13 01:42:58;;;;;;;1.85;1.35;;;19.80;75.10;;;;;;2084219;28;20078;-52
2023/12/13 01:43:58;;;;;;;1.63;1.17;;;19.80;75.10;;;;;;2086636;28;20102;-50
2023/12/13 01:44:59;;;;;;;1.60;1.23;;;19.80;75.00;;;;;;2086740;28;20029;-49
2023/12/13 01:45:59;;;;;;;1.85;1.17;;;19.80;75.00;;;;;;2086926;28;20027;-51
2023/12/13 01:47:02;;;;;;;1.70;1.10;;;19.80;75.60;;;;;;2086872;28;20020;-50
2023/12/13 01:48:02;;;;;;;1.65;1.10;;;19.80;75.00;;;;;;2086528;28;20029;-49
2023/12/13 01:49:06;;;;;;;2.47;1.15;;;19.80;75.00;;;;;;2084963;28;20029;-50
2023/12/13 01:50:08;;;;;;;2.35;1.20;;;19.80;75.00;;;;;;2086486;28;20036;-50
2023/12/13 01:51:10;;;;;;;1.25;1.00;;;19.80;75.00;;;;;;2086654;28;20017;-54
2023/12/13 01:52:12;;;;;;;1.45;1.10;;;19.80;75.00;;;;;;2085743;28;20423;-51
2023/12/13 01:53:13;;;;;;;1.50;1.10;;;19.80;75.00;;;;;;2085839;28;20487;-50
2023/12/13 01:54:16;;;;;;;1.60;1.25;;;19.70;75.00;;;;;;2087017;28;20032;-50
2023/12/13 01:55:16;;;;;;;1.98;1.08;;;19.80;75.00;;;;;;2084266;28;20017;-51
2023/12/13 01:56:17;;;;;;;1.33;1.05;;;19.70;74.90;;;;;;2086107;28;20177;-51
2023/12/13 01:57:19;;;;;;;1.73;1.10;;;19.80;75.00;;;;;;2086888;28;20064;-50
2023/12/13 01:58:20;;;;;;;1.42;1.00;;;19.80;75.00;;;;;;2086901;28;20035;-50
2023/12/13 01:59:22;;;;;;;2.85;1.10;;;19.70;74.90;;;;;;2086762;28;20017;-50
2023/12/13 02:00:23;;;;;;;1.63;0.98;;;19.80;75.00;;;;;;2087337;28;20243;-50
2023/12/13 02:01:23;;;;;;;1.45;1.20;;;19.80;75.00;;;;;;2085565;28;20104;-50
2023/12/13 02:02:25;;;;;;;1.30;0.85;;;19.70;74.90;;;;;;2086405;28;20946;-51
2023/12/13 02:03:26;;;;;;;2.03;1.08;;;19.70;74.90;;;;;;2086611;28;20396;-49
2023/12/13 02:04:28;;;;;;;2.38;1.20;;;19.70;74.80;;;;;;2085877;28;20013;-50
2023/12/13 02:05:30;;;;;;;2.60;1.00;;;19.70;74.80;;;;;;2085701;28;20035;-50
2023/12/13 02:06:31;;;;;;;2.25;1.00;;;19.80;74.90;;;;;;2094332;28;20403;-50
2023/12/13 02:07:31;;;;;;;1.75;0.98;;;19.70;74.80;;;;;;2092963;28;20115;-50
2023/12/13 02:08:33;;;;;;;0.80;0.80;;;19.60;74.80;;;;;;2086665;28;20507;-50
2023/12/13 02:09:34;;;;;;;1.35;1.08;;;19.60;74.80;;;;;;2086044;28;20021;-50
2023/12/13 02:10:34;;;;;;;2.25;0.90;;;19.60;74.80;;;;;;2086693;28;20159;-51
2023/12/13 02:11:35;;;;;;;1.20;0.93;;;19.70;74.90;;;;;;2086730;28;20029;-50
2023/12/13 02:12:37;;;;;;;1.40;1.27;;;19.70;74.90;;;;;;2085996;28;20549;-50
2023/12/13 02:13:37;;;;;;;1.20;1.02;;;19.60;74.80;;;;;;2084449;28;20059;-54
2023/12/13 02:14:38;;;;;;;1.27;1.08;;;19.80;74.90;;;;;;2086110;28;20037;-49
2023/12/13 02:15:39;;;;;;;1.45;0.80;;;19.80;74.90;;;;;;2086753;28;20032;-49
2023/12/13 02:16:39;;;;;;;1.40;1.02;;;19.70;74.80;;;;;;2086741;28;20029;-50
2023/12/13 02:17:53;;;;;;;2.40;0.93;;;19.70;74.80;;;;;;2086446;28;20037;-49
2023/12/13 02:18:53;;;;;;;1.67;1.20;;;19.70;74.70;;;;;;2085671;28;20549;-49
2023/12/13 02:19:54;;;;;;;1.40;1.00;;;19.60;74.80;;;;;;2086876;28;20047;-52
2023/12/13 02:20:55;;;;;;;2.10;1.10;;;19.70;74.80;;;;;;2086089;28;20059;-54
2023/12/13 02:21:55;;;;;;;1.80;1.17;;;19.70;74.80;;;;;;2086553;28;20027;-49
2023/12/13 02:22:56;;;;;;;1.40;1.00;;;19.70;74.80;;;;;;2086775;28;20404;-51
2023/12/13 02:24:03;;;;;;;2.47;1.38;;;19.70;75.40;;;;;;2085675;28;20026;-51
2023/12/13 02:25:05;;;;;;;1.58;1.10;;;19.80;74.90;;;;;;2087696;28;20020;-50
2023/12/13 02:26:07;;;;;;;1.65;0.88;;;19.70;74.80;;;;;;2087792;28;20021;-50
2023/12/13 02:27:07;;;;;;;1.55;1.05;;;19.60;74.80;;;;;;2087343;28;20086;-49
2023/12/13 02:28:09;;;;;;;1.50;1.17;;;19.60;74.80;;;;;;2087776;28;20033;-50
2023/12/13 02:29:11;;;;;;;1.50;1.08;;;19.70;74.80;;;;;;2088368;28;20025;-49
2023/12/13 02:30:11;;;;;;;2.72;1.17;;;19.60;74.70;;;;;;2088100;28;20044;-50
2023/12/13 02:31:14;;;;;;;1.52;1.13;;;19.70;74.80;;;;;;2087754;28;20032;-50
2023/12/13 02:32:15;;;;;;;2.72;1.10;;;19.70;74.80;;;;;;2088898;28;20049;-49
2023/12/13 02:33:16;;;;;;;1.75;1.00;;;19.70;74.80;;;;;;2087947;28;20040;-51
2023/12/13 02:34:16;;;;;;;1.42;0.95;;;19.70;74.70;;;;;;2088431;28;20025;-50
2023/12/13 02:35:17;;;;;;;1.63;1.15;;;19.70;74.70;;;;;;2088338;28;20048;-49
2023/12/13 02:36:17;;;;;;;1.85;1.40;;;19.70;74.70;;;;;;2087889;28;20078;-50
2023/12/13 02:37:19;;;;;;;1.80;1.13;;;19.60;74.60;;;;;;2088571;28;20553;-50
2023/12/13 02:38:20;;;;;;;1.38;1.02;;;19.60;74.60;;;;;;2088367;28;20021;-50
2023/12/13 02:39:21;;;;;;;1.10;0.90;;;19.70;74.70;;;;;;2087238;28;20029;-50
2023/12/13 02:40:22;;;;;;;1.77;1.00;;;19.70;74.70;;;;;;2088938;28;20060;-49
2023/12/13 02:41:23;;;;;;;1.48;1.08;;;19.70;74.70;;;;;;2088263;28;20016;-50
2023/12/13 02:42:27;;;;;;;2.20;1.10;;;19.70;74.60;;;;;;2088206;28;20013;-49
2023/12/13 02:43:30;;;;;;;1.48;1.05;;;19.70;74.70;;;;;;2088490;28;20021;-50
2023/12/13 02:44:30;;;;;;;1.60;1.05;;;19.60;74.60;;;;;;2088568;28;20066;-50
2023/12/13 02:45:31;;;;;;;1.50;1.27;;;19.70;74.70;;;;;;2087901;28;20021;-50
2023/12/13 02:46:31;;;;;;;2.15;1.00;;;19.70;74.70;;;;;;2088133;28;20383;-50
2023/12/13 02:47:32;;;;;;;1.27;0.88;;;19.60;74.60;;;;;;2088302;28;20377;-51
2023/12/13 02:48:32;;;;;;;1.13;0.95;;;19.70;74.70;;;;;;2088529;28;20387;-50
2023/12/13 02:49:33;;;;;;;1.63;1.10;;;19.60;74.60;;;;;;2087952;28;20047;-50
2023/12/13 02:50:39;;;;;;;3.08;1.33;;;19.60;74.60;;;;;;2088500;28;20035;-52
2023/12/13 02:51:40;;;;;;;1.23;1.00;;;19.70;74.60;;;;;;2088006;28;20087;-49
2023/12/13 02:52:41;;;;;;;1.80;1.10;;;19.80;74.70;;;;;;2088520;28;20028;-51
2023/12/13 02:53:41;;;;;;;2.47;1.00;;;19.60;74.60;;;;;;2087484;28;20377;-50
2023/12/13 02:54:42;;;;;;;1.58;1.20;;;19.60;74.60;;;;;;2088001;28;20032;-50
2023/12/13 02:55:42;;;;;;;2.42;1.05;;;19.60;74.70;;;;;;2087934;28;20063;-51
2023/12/13 02:56:43;;;;;;;1.48;1.08;;;19.60;74.60;;;;;;2088313;28;20032;-50
2023/12/13 02:57:43;;;;;;;1.30;1.20;;;19.60;74.60;;;;;;2087420;28;20040;-50
2023/12/13 02:58:44;;;;;;;1.42;1.00;;;19.60;74.60;;;;;;2088697;28;20237;-50
2023/12/13 02:59:45;;;;;;;2.17;1.38;;;19.60;74.60;;;;;;2088241;28;20056;-50
2023/12/13 03:00:45;;;;;;;1.30;0.98;;;19.60;74.60;;;;;;2088083;28;20021;-50
2023/12/13 03:01:46;;;;;;;1.48;1.10;;;19.60;74.60;;;;;;2088106;28;20499;-52
2023/12/13 03:02:47;;;;;;;1.10;0.90;;;19.60;74.60;;;;;;2087692;28;20052;-50
2023/12/13 03:03:47;;;;;;;1.20;1.10;;;19.60;74.50;;;;;;2087757;28;20025;-50
2023/12/13 03:04:48;;;;;;;1.20;0.98;;;19.70;74.60;;;;;;2088142;28;20033;-50
2023/12/13 03:05:48;;;;;;;2.03;1.00;;;19.60;74.60;;;;;;2088302;28;20044;-51
2023/12/13 03:06:49;;;;;;;1.52;1.00;;;19.60;74.60;;;;;;2088297;28;20037;-50
2023/12/13 03:07:50;;;;;;;2.05;1.15;;;19.60;74.60;;;;;;2088226;28;20052;-50
2023/12/13 03:08:50;;;;;;;1.13;1.02;;;19.60;74.60;;;;;;2087402;28;20032;-50
2023/12/13 03:09:51;;;;;;;2.67;1.20;;;19.60;74.50;;;;;;2088537;28;20075;-50
2023/12/13 03:10:51;;;;;;;1.27;0.98;;;19.60;74.60;;;;;;2087932;28;20029;-53
2023/12/13 03:11:52;;;;;;;3.03;1.30;;;19.70;74.60;;;;;;2087341;28;20102;-49
2023/12/13 03:12:52;;;;;;;1.83;1.00;;;19.60;74.60;;;;;;2087454;28;20079;-49
2023/12/13 03:13:53;;;;;;;1.55;1.08;;;19.60;74.50;;;;;;2087501;28;20039;-50
2023/12/13 03:14:54;;;;;;;1.63;1.10;;;19.70;74.50;;;;;;2088019;28;20035;-51
2023/12/13 03:15:54;;;;;;;1.48;1.00;;;19.60;74.50;;;;;;2087468;28;20017;-50
2023/12/13 03:16:55;;;;;;;1.10;0.90;;;19.50;74.50;;;;;;2085877;28;20044;-50
2023/12/13 03:17:55;;;;;;;2.15;1.13;;;19.60;74.60;;;;;;2088181;28;20021;-51
2023/12/13 03:18:56;;;;;;;2.22;1.00;;;19.60;74.60;;;;;;2084456;28;20223;-50
2023/12/13 03:19:56;;;;;;;2.05;1.05;;;19.60;74.60;;;;;;2087992;28;20433;-50
2023/12/13 03:20:57;;;;;;;1.92;1.20;;;19.60;74.50;;;;;;2087824;28;20479;-49
2023/12/13 03:21:57;;;;;;;1.88;1.20;;;19.60;74.50;;;;;;2086450;28;20530;-50
2023/12/13 03:22:58;;;;;;;1.55;1.02;;;19.60;74.50;;;;;;2087291;28;20020;-49
2023/12/13 03:23:58;;;;;;;1.38;0.90;;;19.60;74.50;;;;;;2086946;28;20467;-51
2023/12/13 03:24:59;;;;;;;1.33;0.98;;;19.50;74.40;;;;;;2087393;28;20020;-49
2023/12/13 03:25:59;;;;;;;2.30;1.40;;;19.60;74.50;;;;;;2088243;28;20029;-49
2023/12/13 03:27:00;;;;;;;1.65;1.10;;;19.60;74.50;;;;;;2087852;28;20016;-50
2023/12/13 03:28:01;;;;;;;1.50;1.00;;;19.70;74.50;;;;;;2088081;28;20057;-50
2023/12/13 03:29:01;;;;;;;1.67;1.30;;;19.60;74.50;;;;;;2087699;28;20025;-51
2023/12/13 03:30:03;;;;;;;2.15;1.30;;;19.50;74.40;;;;;;2086625;28;20030;-49
2023/12/13 03:31:09;;;;;;;2.58;1.20;;;19.60;74.50;;;;;;2088154;28;20373;-49
2023/12/13 03:32:09;;;;;;;3.30;1.80;;;19.60;74.40;;;;;;2087937;28;20096;-50
2023/12/13 03:33:10;;;;;;;1.92;1.30;;;19.60;74.50;;;;;;2088092;28;20337;-51
2023/12/13 03:34:11;;;;;;;1.20;1.10;;;19.60;74.50;;;;;;2088390;28;20504;-52
2023/12/13 03:35:11;;;;;;;1.63;1.20;;;19.60;74.50;;;;;;2083790;28;20043;-49
2023/12/13 03:36:16;;;;;;;1.52;1.00;;;19.60;74.50;;;;;;2087707;28;20017;-50
2023/12/13 03:37:16;;;;;;;3.60;1.10;;;19.70;74.50;;;;;;2087533;28;20160;-50
2023/12/13 03:38:17;;;;;;;2.40;1.15;;;19.50;74.40;;;;;;2086502;28;21164;-50
2023/12/13 03:39:18;;;;;;;1.33;1.20;;;19.60;74.40;;;;;;2088032;28;20396;-50
2023/12/13 03:40:18;;;;;;;2.50;1.02;;;19.60;74.40;;;;;;2087953;28;20017;-50
2023/12/13 03:41:19;;;;;;;1.42;1.20;;;19.50;74.40;;;;;;2086485;28;20021;-49
2023/12/13 03:42:20;;;;;;;2.13;1.13;;;19.60;74.40;;;;;;2087534;28;20021;-50
2023/12/13 03:43:20;;;;;;;1.02;0.90;;;19.50;74.40;;;;;;2087882;28;20028;-51
2023/12/13 03:44:21;;;;;;;0.80;0.70;;;19.60;74.40;;;;;;2088227;28;20045;-51
2023/12/13 03:45:23;;;;;;;1.40;1.00;;;19.50;75.00;;;;;;2087774;28;20036;-49
2023/12/13 03:46:23;;;;;;;2.33;1.17;;;19.50;74.40;;;;;;2086861;28;20031;-50
2023/12/13 03:47:24;;;;;;;1.52;1.10;;;19.50;74.40;;;;;;2085457;28;20021;-50
2023/12/13 03:48:24;;;;;;;1.65;1.35;;;19.50;74.40;;;;;;2087504;28;20025;-51
2023/12/13 03:49:25;;;;;;;1.98;1.20;;;19.50;74.40;;;;;;2088398;28;20104;-50
2023/12/13 03:50:25;;;;;;;1.20;1.10;;;19.60;74.40;;;;;;2087318;28;20042;-50
2023/12/13 03:51:26;;;;;;;1.67;1.30;;;19.50;74.40;;;;;;2087918;28;20037;-50
2023/12/13 03:52:27;;;;;;;2.40;1.10;;;19.60;74.50;;;;;;2088222;28;20013;-51
2023/12/13 03:53:28;;;;;;;1.67;1.20;;;19.50;74.40;;;;;;2087820;28;20168;-49
2023/12/13 03:54:28;;;;;;;2.00;1.10;;;19.50;74.40;;;;;;2087348;28;20491;-51
2023/12/13 03:55:29;;;;;;;1.92;1.00;;;19.50;74.40;;;;;;2088453;28;20040;-50
2023/12/13 03:56:30;;;;;;;1.08;0.98;;;19.50;74.40;;;;;;2087183;28;20009;-49
2023/12/13 03:57:30;;;;;;;1.63;1.08;;;19.50;74.40;;;;;;2088143;28;20024;-50
2023/12/13 03:58:31;;;;;;;1.73;1.10;;;19.50;74.40;;;;;;2087955;28;20053;-54
2023/12/13 03:59:32;;;;;;;1.55;1.10;;;19.40;74.40;;;;;;2086862;28;20025;-50
2023/12/13 04:00:32;;;;;;;1.20;1.10;;;19.40;74.40;;;;;;2087922;28;20029;-49
2023/12/13 04:01:33;;;;;;;2.25;1.10;;;19.50;74.40;;;;;;2088146;28;20025;-51
2023/12/13 04:02:34;;;;;;;1.58;1.10;;;19.60;74.50;;;;;;2087194;28;20052;-50
2023/12/13 04:03:35;;;;;;;1.73;1.30;;;19.50;74.40;;;;;;2088347;28;20023;-50
2023/12/13 04:04:35;;;;;;;1.92;1.00;;;19.50;74.40;;;;;;2087045;28;20484;-52
2023/12/13 04:05:36;;;;;;;2.10;1.45;;;19.50;74.40;;;;;;2085632;28;20052;-51
2023/12/13 04:06:36;;;;;;;1.77;1.00;;;19.60;74.40;;;;;;2086343;28;20108;-51
2023/12/13 04:07:37;;;;;;;2.42;1.20;;;19.50;74.40;;;;;;2087136;28;20060;-51
2023/12/13 04:08:38;;;;;;;1.35;1.13;;;19.40;74.30;;;;;;2087577;28;20029;-51
2023/12/13 04:09:38;;;;;;;1.63;1.10;;;19.50;74.40;;;;;;2088060;28;20479;-50
2023/12/13 04:10:39;;;;;;;2.60;1.10;;;19.50;74.40;;;;;;2087065;28;20025;-51
2023/12/13 04:11:39;;;;;;;2.45;1.20;;;19.50;74.40;;;;;;2088313;28;20032;-49
2023/12/13 04:12:40;;;;;;;2.60;1.40;;;19.50;74.40;;;;;;2087393;28;20060;-50
2023/12/13 04:13:42;;;;;;;1.38;1.05;;;19.50;74.30;;;;;;2085271;28;20059;-51
2023/12/13 04:14:42;;;;;;;2.17;1.20;;;19.50;74.30;;;;;;2087028;28;20067;-50
2023/12/13 04:15:43;;;;;;;1.70;1.48;;;19.50;74.30;;;;;;2086649;28;20083;-50
2023/12/13 04:16:43;;;;;;;2.40;1.40;;;19.40;74.30;;;;;;2086777;28;20021;-50
2023/12/13 04:17:44;;;;;;;2.33;1.00;;;19.40;74.30;;;;;;2087463;28;20029;-50
2023/12/13 04:18:44;;;;;;;1.52;1.00;;;19.50;74.40;;;;;;2086914;28;20100;-50
2023/12/13 04:19:45;;;;;;;2.35;1.55;;;19.50;74.30;;;;;;2087464;28;20020;-50
2023/12/13 04:20:45;;;;;;;1.50;1.08;;;19.40;74.30;;;;;;2087426;28;20613;-51
2023/12/13 04:21:46;;;;;;;1.50;1.25;;;19.50;74.40;;;;;;2086969;28;20092;-49
2023/12/13 04:22:47;;;;;;;2.08;1.25;;;19.50;74.40;;;;;;2088076;28;20156;-50
2023/12/13 04:23:47;;;;;;;2.05;1.30;;;19.40;74.30;;;;;;2086873;28;20032;-49
2023/12/13 04:24:48;;;;;;;1.45;1.20;;;19.60;74.40;;;;;;2086019;28;20033;-51
2023/12/13 04:25:49;;;;;;;2.35;1.00;;;19.50;74.30;;;;;;2087252;28;20017;-50
2023/12/13 04:26:50;;;;;;;1.30;1.20;;;19.50;74.30;;;;;;2087358;28;20106;-51
2023/12/13 04:27:50;;;;;;;1.60;1.25;;;19.40;74.20;;;;;;2087395;28;20415;-51
2023/12/13 04:28:51;;;;;;;1.67;1.10;;;19.40;74.30;;;;;;2087482;28;20039;-50
2023/12/13 04:29:51;;;;;;;1.33;1.20;;;19.40;74.30;;;;;;2086706;28;20021;-52
2023/12/13 04:30:52;;;;;;;2.08;1.30;;;19.50;74.30;;;;;;2088025;28;20020;-50
2023/12/13 04:31:52;;;;;;;2.30;1.30;;;19.40;74.30;;;;;;2086964;28;20447;-50
2023/12/13 04:32:53;;;;;;;1.88;1.10;;;19.40;74.30;;;;;;2087250;28;20399;-49
2023/12/13 04:33:54;;;;;;;1.48;1.20;;;19.40;74.20;;;;;;2087567;28;20051;-50
2023/12/13 04:34:54;;;;;;;1.98;1.40;;;19.50;74.30;;;;;;2082342;28;20531;-50
2023/12/13 04:35:58;;;;;;;1.83;1.35;;;19.40;74.20;;;;;;2086662;28;20104;-50
2023/12/13 04:36:59;;;;;;;2.20;1.30;;;19.50;74.30;;;;;;2087626;28;20054;-50
2023/12/13 04:37:59;;;;;;;3.13;1.33;;;19.40;74.30;;;;;;2086650;28;20132;-51
2023/12/13 04:39:00;;;;;;;1.30;1.20;;;19.40;74.20;;;;;;2087339;28;20032;-51
2023/12/13 04:40:01;;;;;;;1.23;1.08;;;19.40;74.30;;;;;;2087075;28;20104;-51
2023/12/13 04:41:02;;;;;;;2.00;1.27;;;19.40;74.30;;;;;;2087142;28;20952;-50
2023/12/13 04:42:05;;;;;;;1.10;1.00;;;19.40;74.30;;;;;;2087306;28;20067;-50
2023/12/13 04:43:06;;;;;;;1.35;1.25;;;19.40;74.30;;;;;;2086931;28;20515;-51
2023/12/13 04:44:08;;;;;;;2.25;1.33;;;19.40;74.30;;;;;;2087154;28;20053;-51
2023/12/13 04:45:09;;;;;;;1.23;1.10;;;19.50;74.40;;;;;;2087227;28;20468;-51
2023/12/13 04:46:09;;;;;;;1.52;1.20;;;19.40;74.20;;;;;;2087220;28;20023;-51
2023/12/13 04:47:10;;;;;;;1.77;1.20;;;19.40;74.20;;;;;;2081584;28;20072;-51
2023/12/13 04:48:11;;;;;;;2.47;1.45;;;19.40;74.30;;;;;;2086624;28;20086;-50
2023/12/13 04:49:11;;;;;;;1.10;1.00;;;19.40;74.30;;;;;;2087242;28;20064;-51
2023/12/13 04:50:12;;;;;;;1.73;1.33;;;19.40;74.30;;;;;;2087096;28;20025;-51
2023/12/13 04:51:12;;;;;;;2.35;1.33;;;19.40;74.30;;;;;;2087055;28;20419;-51
2023/12/13 04:52:13;;;;;;;1.95;1.13;;;19.40;74.20;;;;;;2086799;28;21805;-50
2023/12/13 04:53:13;;;;;;;1.52;1.17;;;19.40;74.20;;;;;;2087014;28;20025;-50
2023/12/13 04:54:14;;;;;;;3.30;1.23;;;19.40;74.20;;;;;;2087207;28;20025;-50
2023/12/13 04:55:15;;;;;;;2.10;1.10;;;19.40;74.20;;;;;;2086835;28;20108;-51
2023/12/13 04:56:16;;;;;;;1.23;1.05;;;19.40;74.20;;;;;;2087106;28;20021;-49
2023/12/13 04:57:17;;;;;;;2.25;1.40;;;19.40;74.30;;;;;;2087170;28;20048;-50
2023/12/13 04:58:17;;;;;;;1.63;1.10;;;19.30;74.20;;;;;;2087304;28;20717;-52
2023/12/13 04:59:18;;;;;;;1.90;1.20;;;19.40;74.30;;;;;;2085991;28;20053;-50
2023/12/13 05:00:18;;;;;;;1.52;1.25;;;19.40;74.20;;;;;;2087144;28;20029;-50
2023/12/13 05:01:19;;;;;;;0.80;0.80;;;19.40;74.20;;;;;;2086889;28;20021;-50
2023/12/13 05:02:19;;;;;;;2.50;1.20;;;19.40;74.30;;;;;;2086666;28;20040;-52
2023/12/13 05:03:20;;;;;;;2.10;0.98;;;19.40;74.40;;;;;;2087505;28;20024;-51
2023/12/13 05:04:21;;;;;;;4.07;0.88;;;19.40;74.50;;;;;;2087286;28;20554;-50
2023/12/13 05:05:22;;;;;;;1.88;1.08;;;19.40;74.60;;;;;;2087435;28;20028;-51
2023/12/13 05:06:22;;;;;;;1.95;0.90;;;19.40;74.60;;;;;;2083356;28;20071;-53
2023/12/13 05:07:23;;;;;;;1.38;0.95;;;19.40;74.60;;;;;;2086590;28;20013;-52
2023/12/13 05:08:23;;;;;;;1.25;1.05;;;19.40;74.70;;;;;;2087635;28;20025;-51
2023/12/13 05:09:24;;;;;;;1.90;1.23;;;19.30;74.70;;;;;;2084251;28;20021;-50
2023/12/13 05:10:24;;;;;;;3.75;1.08;;;19.50;74.80;;;;;;2087521;28;20029;-53
2023/12/13 05:11:25;;;;;;;1.30;1.00;;;19.40;74.70;;;;;;2087283;28;20078;-51
2023/12/13 05:12:25;;;;;;;2.55;1.50;;;19.30;74.60;;;;;;2087579;28;20640;-51
2023/12/13 05:13:27;;;;;;;1.90;1.40;;;19.40;74.60;;;;;;2086808;28;20024;-50
2023/12/13 05:14:27;;;;;;;9.35;1.73;;;19.40;74.60;;;;;;2087722;28;20017;-51
2023/12/13 05:15:28;;;;;;;3.63;1.85;;;19.40;74.60;;;;;;2087002;28;20395;-50
2023/12/13 05:16:28;;;;;;;2.08;1.55;;;19.30;74.50;;;;;;2087379;28;20100;-51
2023/12/13 05:17:29;;;;;;;2.20;1.58;;;19.30;74.50;;;;;;2083751;28;20036;-52